Latest Weather Observations for Toowoomba

IDQ60901

Issued at 9:11 am EST Thursday 25 August 2016 (issued every 10 minutes, with the page automatically refreshed every 10 minutes)

About weather observations | Map of Brisbane area stations | Latest observations for Brisbane area | Other Formats
Station Details ID: 041529 Name: TOOWOOMBA AIRPORT Lat: -27.54 Lon: 151.91 Height: 640.9 m
Data from the previous 72 hours. | See also: Recent months at Toowoomba
Date/Time
EST
Temp
°C
App
Temp
°C
Dew
Point
°C
Rel
Hum
%
Delta-T
°C
Wind Press
QNH
hPa
Press
MSL
hPa
Rain since
9am
mm
Dir  Spd
km/h
Gust
km/h
Spd
kts
Gust
kts
25/09:00am 8.3 0.5 4.9 79 1.6 WSW 35 52 19 28 1014.4 1013.5 9.4
25/08:30am 8.2 0.6 4.0 75 1.9 W 33 46 18 25 1014.3 1013.4 9.4
25/08:18am 7.7 0.6 3.7 76 1.8 WSW 30 48 16 26 1014.3 1013.4 9.4
25/08:00am 7.5 0.4 5.5 87 0.9 WSW 32 44 17 24 1014.2 1013.2 9.4
25/07:41am 7.3 1.5 6.1 92 0.6 WSW 26 33 14 18 1014.1 1013.1 9.4
25/07:30am 7.3 0.6 5.6 89 0.8 WSW 30 43 16 23 1014.0 1013.0 9.4
25/07:20am 7.4 0.2 5.2 86 1.0 WSW 32 41 17 22 1013.9 1012.9 9.4
25/07:00am 7.3 0.9 5.3 87 0.9 WSW 28 39 15 21 1014.1 1013.1 9.4
25/06:59am 7.3 0.9 5.3 87 0.9 WSW 28 39 15 21 1014.1 1013.1 9.4
25/06:53am 7.4 1.1 5.5 88 0.9 WSW 28 41 15 22 1013.9 1012.9 9.4
25/06:30am 8.1 3.7 7.2 94 0.4 W 20 30 11 16 1013.8 1012.8 9.4
25/06:00am 8.1 2.5 7.3 95 0.4 WSW 26 39 14 21 1012.8 1011.8 9.4
25/05:30am 8.6 4.3 7.8 95 0.4 W 20 30 11 16 1012.3 1011.3 9.4
25/05:00am 8.7 4.0 7.6 93 0.5 W 22 33 12 18 1012.4 1011.4 9.4
25/04:30am 8.8 3.7 7.7 93 0.5 W 24 33 13 18 1012.2 1011.2 9.4
25/04:00am 8.9 3.5 8.1 95 0.4 WSW 26 35 14 19 1011.8 1010.9 9.4
25/03:30am 9.1 3.4 8.2 94 0.4 WSW 28 44 15 24 1009.8 1008.8 9.4
25/03:29am 9.1 3.3 8.0 93 0.5 WSW 28 44 15 24 1009.8 1008.8 9.4
25/03:00am 9.5 4.2 8.3 92 0.6 WSW 26 41 14 22 1011.8 1010.9 9.2
25/02:30am 9.9 3.5 8.5 91 0.7 WSW 32 44 17 24 1011.3 1010.3 9.2
25/02:00am 10.1 4.7 9.6 97 0.3 WSW 28 37 15 20 1009.9 1008.9 9.2
25/01:30am 10.5 5.2 9.7 95 0.4 WSW 28 41 15 22 1010.5 1009.5 9.2
25/01:00am 11.0 6.2 10.4 96 0.3 WSW 26 35 14 19 1010.9 1009.9 9.2
25/12:30am 11.2 4.9 11.0 99 0.1 WSW 35 44 19 24 1011.5 1010.6 9.2
25/12:00am 11.5 5.8 11.3 99 0.1 WSW 32 41 17 22 1011.4 1010.4 9.2
 
Date/Time
EST
Temp
°C
App
Temp
°C
Dew
Point
°C
Rel
Hum
%
Delta-T
°C
Wind Press
QNH
hPa
Press
MSL
hPa
Rain since
9am
mm
Dir  Spd
km/h
Gust
km/h
Spd
kts
Gust
kts
24/11:56pm 11.5 5.6 11.3 99 0.1 WSW 33 48 18 26 1011.2 1010.2 9.2
24/11:40pm 12.6 6.7 12.4 99 0.1 W 35 50 19 27 1011.1 1010.1 9.2
24/11:34pm 13.1 7.4 12.9 99 0.1 W 35 54 19 29 1011.5 1010.6 9.2
24/11:30pm 13.2 7.1 13.0 99 0.1 W 37 54 20 29 1011.4 1010.4 9.2
24/11:04pm 13.6 8.6 13.4 99 0.1 WNW 32 50 17 27 1010.7 1009.7 9.2
24/11:00pm 13.7 8.5 13.5 99 0.1 WNW 33 50 18 27 1010.8 1009.8 9.2
24/10:30pm 14.1 9.1 13.9 99 0.1 WNW 33 54 18 29 1009.8 1008.8 9.2
24/10:27pm 14.1 9.1 13.9 99 0.1 WNW 33 54 18 29 1009.7 1008.7 9.2
24/10:09pm 14.5 9.6 14.3 99 0.1 WNW 33 48 18 26 1009.1 1008.1 9.2
24/10:00pm 14.7 9.5 14.5 99 0.1 WNW 35 57 19 31 1010.0 1009.0 9.2
24/09:56pm 14.7 10.1 14.5 99 0.1 WNW 32 52 17 28 1010.1 1009.1 9.2
24/09:30pm 15.1 11.8 14.9 99 0.1 WNW 26 41 14 22 1010.0 1009.0 9.2
24/09:00pm 15.1 12.9 14.9 99 0.1 WNW 20 26 11 14 1009.8 1008.8 9.2
24/08:30pm 15.0 12.4 14.8 99 0.1 WNW 22 35 12 19 1010.7 1009.7 9.2
24/08:00pm 14.9 13.2 14.7 99 0.1 WNW 17 24 9 13 1010.8 1009.8 9.2
24/07:30pm 14.9 13.6 14.7 99 0.1 WNW 15 20 8 11 1009.9 1008.9 9.2
24/07:00pm 15.0 13.3 14.8 99 0.1 W 17 26 9 14 1010.3 1009.3 9.2
24/06:42pm 14.9 13.6 14.7 99 0.1 WNW 15 24 8 13 1010.5 1009.5 8.6
24/06:30pm 14.9 14.3 14.7 99 0.1 WNW 11 19 6 10 1010.3 1009.3 8.6
24/06:26pm 14.8 14.2 14.6 99 0.1 WNW 11 17 6 9 1009.9 1008.9 8.6
24/06:03pm 14.9 13.9 14.7 99 0.1 N 13 17 7 9 1009.4 1008.4 8.4
24/06:00pm 14.8 14.2 14.6 99 0.1 N 11 17 6 9 1009.3 1008.3 8.4
24/05:45pm 14.9 13.9 14.7 99 0.1 N 13 20 7 11 1009.2 1008.2 8.4
24/05:30pm 15.0 13.3 14.8 99 0.1 N 17 24 9 13 1009.6 1008.6 8.4
24/05:00pm 14.9 14.3 14.7 99 0.1 N 11 15 6 8 1009.1 1008.1 8.4
24/04:30pm 14.9 14.7 14.7 99 0.1 W 9 15 5 8 1009.9 1008.9 8.2
24/04:00pm 14.9 13.9 14.7 99 0.1 SW 13 15 7 8 1009.5 1008.5 8.2
24/03:30pm 15.2 14.4 15.0 99 0.1 W 13 17 7 9 1008.7 1007.6 8.2
24/03:00pm 15.2 12.6 15.0 99 0.1 W 22 35 12 19 1009.7 1008.7 8.2
24/02:30pm 15.0 12.8 14.8 99 0.1 WSW 20 28 11 15 1009.5 1008.5 8.0
24/02:15pm 14.6 12.4 14.4 99 0.1 WSW 19 26 10 14 1009.5 1008.5 8.0
24/02:00pm 14.8 12.5 14.6 99 0.1 WSW 20 26 11 14 1009.4 1008.4 7.6
24/01:30pm 14.6 12.2 14.4 99 0.1 WSW 20 28 11 15 1009.3 1008.3 7.0
24/01:27pm 14.8 12.5 14.6 99 0.1 W 20 28 11 15 1009.3 1008.3 6.6
24/01:13pm 15.4 11.8 15.2 99 0.1 W 28 37 15 20 1009.2 1008.2 6.6
24/01:00pm 15.8 12.7 15.6 99 0.1 W 26 37 14 20 1009.4 1008.4 6.4
24/12:54pm 15.4 11.8 15.2 99 0.1 W 28 37 15 20 1009.6 1008.6 6.2
24/12:30pm 15.8 12.3 15.6 99 0.1 W 28 37 15 20 1009.7 1008.7 5.0
24/12:11pm 16.3 13.0 16.1 99 0.1 W 28 41 15 22 1009.8 1008.8 4.6
24/12:00pm 16.2 12.5 16.0 99 0.1 WNW 30 48 16 26 1009.5 1008.5 4.6
24/11:58am 16.2 12.5 16.0 99 0.1 WNW 30 48 16 26 1009.5 1008.5 4.6
24/11:30am 16.3 12.6 16.1 99 0.1 WNW 30 41 16 22 1009.6 1008.6 4.4
24/11:10am 16.8 14.1 16.6 99 0.1 NW 26 39 14 21 1009.9 1008.9 2.4
24/11:00am 16.8 13.7 16.6 99 0.1 NW 28 37 15 20 1009.9 1008.9 1.8
24/10:37am 16.7 14.0 16.5 99 0.1 NW 26 33 14 18 1010.1 1009.1 1.8
24/10:30am 16.7 14.3 16.5 99 0.1 NW 24 33 13 18 1010.1 1009.1 1.8
24/10:00am 16.7 13.6 16.5 99 0.1 NNW 28 39 15 21 1010.5 1009.5 1.0
24/09:59am 16.8 13.7 16.6 99 0.1 NNW 28 39 15 21 1010.5 1009.5 0.8
24/09:43am 16.9 13.5 16.7 99 0.1 NNW 30 41 16 22 1010.5 1009.5 0.4
24/09:30am 16.9 13.9 16.7 99 0.1 NNW 28 37 15 20 1010.5 1009.5 0.4
24/09:24am 17.0 14.4 16.8 99 0.1 NNW 26 44 14 24 1010.6 1009.6 0.4
24/09:04am 17.0 15.5 16.8 99 0.1 NW 20 28 11 15 1010.8 1009.8 0.0
24/09:00am 17.0 15.7 16.8 99 0.1 NW 19 30 10 16 1010.8 1009.8 19.8
24/08:30am 16.7 16.4 16.5 99 0.1 N 13 17 7 9 1011.0 1010.0 18.6
24/08:00am 16.8 16.2 16.6 99 0.1 N 15 22 8 12 1011.1 1010.1 16.4
24/07:53am 16.8 16.2 16.6 99 0.1 NNE 15 22 8 12 1011.1 1010.1 16.0
24/07:49am 16.7 15.7 16.5 99 0.1 NNE 17 22 9 12 1011.0 1010.0 15.8
24/07:30am 16.6 15.9 16.4 99 0.1 NNE 15 22 8 12 1011.0 1010.0 15.2
24/07:00am 16.3 16.6 16.1 99 0.1 NE 9 11 5 6 1011.0 1010.0 12.0
24/06:54am 16.3 16.6 16.1 99 0.1 NE 9 15 5 8 1010.9 1009.9 11.6
24/06:30am 16.6 15.9 16.4 99 0.1 NNE 15 19 8 10 1010.8 1009.8 10.6
24/06:00am 16.6 15.9 16.3 98 0.2 NNE 15 20 8 11 1010.7 1009.7 9.4
24/05:56am 16.6 16.2 16.3 98 0.2 NNE 13 19 7 10 1010.7 1009.7 9.4
24/05:30am 16.5 16.1 16.2 98 0.2 NNE 13 20 7 11 1010.4 1009.4 9.4
24/05:02am 16.4 15.6 16.1 98 0.2 NNE 15 24 8 13 1010.3 1009.3 9.2
24/05:00am 16.5 15.7 16.2 98 0.2 NNE 15 24 8 13 1010.4 1009.4 9.2
24/04:30am 16.5 15.8 16.3 99 0.1 NNE 15 20 8 11 1010.4 1009.4 9.2
24/04:00am 16.4 15.2 16.2 99 0.1 NNE 17 26 9 14 1010.3 1009.3 9.0
24/03:41am 16.3 15.1 16.1 99 0.1 NNE 17 26 9 14 1010.6 1009.6 8.8
24/03:30am 16.3 15.1 16.1 99 0.1 NNE 17 22 9 12 1010.8 1009.8 8.8
24/03:20am 16.3 15.5 16.1 99 0.1 NNE 15 20 8 11 1010.8 1009.8 8.8
24/03:00am 16.2 15.4 16.0 99 0.1 NNE 15 20 8 11 1011.0 1010.0 8.8
24/02:30am 16.1 15.2 15.9 99 0.1 NNE 15 22 8 12 1011.3 1010.3 8.6
24/02:22am 16.0 15.1 15.8 99 0.1 NNE 15 20 8 11 1011.4 1010.4 8.6
24/02:04am 15.8 14.8 15.6 99 0.1 NNE 15 19 8 10 1011.5 1010.6 8.4
24/02:00am 15.8 14.8 15.6 99 0.1 NNE 15 24 8 13 1011.6 1010.7 8.4
24/01:30am 15.6 14.9 15.4 99 0.1 N 13 19 7 10 1012.4 1011.4 8.2
24/01:29am 15.6 14.9 15.4 99 0.1 N 13 19 7 10 1012.5 1011.5 8.0
24/01:11am 15.4 15.8 15.2 99 0.1 N 7 11 4 6 1012.8 1011.8 8.0
24/01:05am 15.4 15.4 15.2 99 0.1 N 9 13 5 7 1012.7 1011.7 8.0
24/01:00am 15.4 15.4 15.2 99 0.1 N 9 13 5 7 1012.8 1011.8 8.0
24/12:30am 15.2 13.6 15.0 99 0.1 NE 17 22 9 12 1012.8 1011.8 7.4
24/12:00am 15.0 14.1 14.8 99 0.1 ENE 13 19 7 10 1012.9 1012.0 1.2
 
Date/Time
EST
Temp
°C
App
Temp
°C
Dew
Point
°C
Rel
Hum
%
Delta-T
°C
Wind Press
QNH
hPa
Press
MSL
hPa
Rain since
9am
mm
Dir  Spd
km/h
Gust
km/h
Spd
kts
Gust
kts
23/11:30pm 15.0 12.8 14.8 99 0.1 ENE 20 26 11 14 1013.2 1012.3 1.2
23/11:00pm 15.0 12.4 14.8 99 0.1 E 22 28 12 15 1013.7 1012.7 1.2
23/10:30pm 15.0 11.6 14.8 99 0.1 E 26 33 14 18 1013.8 1012.8 1.2
23/10:00pm 15.1 11.4 14.9 99 0.1 E 28 35 15 19 1013.9 1012.9 1.2
23/09:30pm 15.1 12.1 14.9 99 0.1 E 24 30 13 16 1014.5 1013.6 1.2
23/09:12pm 15.1 12.5 14.9 99 0.1 E 22 28 12 15 1014.6 1013.7 1.2
23/09:00pm 15.0 12.8 14.8 99 0.1 ESE 20 26 11 14 1014.6 1013.7 1.2
23/08:48pm 14.9 12.4 14.1 95 0.5 E 20 24 11 13 1014.7 1013.8 1.2
23/08:30pm 14.8 12.1 13.0 89 1.0 E 19 24 10 13 1014.6 1013.7 1.2
23/08:00pm 14.7 13.0 13.6 93 0.6 ESE 15 19 8 10 1015.4 1014.4 1.2
23/07:30pm 14.6 13.0 12.8 89 1.0 ESE 13 15 7 8 1015.5 1014.5 1.2
23/07:00pm 15.0 14.1 13.7 92 0.8 ESE 11 17 6 9 1015.5 1014.5 1.0
23/06:30pm 15.0 14.3 13.2 89 1.0 SSE 9 13 5 7 1015.3 1014.3 1.0
23/06:00pm 15.2 13.7 13.1 87 1.2 SSW 13 17 7 9 1015.3 1014.3 0.8
23/05:30pm 16.2 16.2 15.1 93 0.7 SW 9 13 5 7 1015.0 1014.1 0.4
23/05:00pm 16.5 16.4 14.9 90 1.0 WSW 9 13 5 7 1015.1 1014.2 0.4
23/04:30pm 17.0 15.7 14.8 87 1.3 WSW 15 19 8 10 1015.0 1014.1 0.0
23/04:00pm 17.6 16.1 14.3 81 2.0 WNW 15 20 8 11 1014.8 1013.9 0.0
23/03:30pm 18.1 16.1 13.8 76 2.5 W 17 20 9 11 1014.7 1013.8 0.0
23/03:00pm 18.3 16.3 13.8 75 2.6 WNW 17 20 9 11 1014.6 1013.7 0.0
23/02:30pm 18.5 16.2 14.0 75 2.7 W 19 24 10 13 1014.6 1013.7 0.0
23/02:00pm 18.7 15.4 14.0 74 2.8 W 24 30 13 16 1014.9 1014.0 0.0
23/01:30pm 18.3 15.5 14.4 78 2.3 W 22 30 12 16 1015.0 1014.1 0.0
23/01:00pm 18.1 15.0 14.4 79 2.2 W 24 32 13 17 1015.4 1014.4 0.0
23/12:30pm 17.9 15.4 14.0 78 2.3 W 20 28 11 15 1015.7 1014.8 0.0
23/12:27pm 18.0 15.7 14.1 78 2.3 W 19 24 10 13 1015.7 1014.8 0.0
23/12:00pm 17.5 14.5 13.8 79 2.2 NW 22 30 12 16 1016.1 1015.2 0.0
23/11:59am 17.7 14.7 13.8 78 2.3 NW 22 30 12 16 1016.1 1015.2 0.0
23/11:30am 17.9 14.7 14.2 79 2.2 WNW 24 35 13 19 1016.7 1015.8 0.0
23/11:29am 17.6 14.3 13.9 79 2.2 WNW 24 33 13 18 1016.9 1015.9 0.0
23/11:00am 16.5 14.0 14.2 86 1.3 WNW 20 28 11 15 1017.4 1016.5 0.0
23/10:30am 15.7 13.1 13.7 88 1.2 WNW 20 32 11 17 1018.0 1017.1 0.0
23/10:00am 16.0 12.9 13.5 85 1.4 WNW 22 33 12 18 1017.7 1016.8 0.0
23/09:30am 16.2 13.2 13.7 85 1.5 NW 22 28 12 15 1017.3 1016.4 0.0
23/09:00am 15.2 13.4 14.4 95 0.5 NNW 17 20 9 11 1017.4 1016.5 6.0
23/08:30am 14.6 13.1 14.1 97 0.3 NW 15 19 8 10 1017.4 1016.5 6.0
23/08:00am 14.4 13.2 13.9 97 0.3 NNW 13 17 7 9 1017.3 1016.4 6.0
23/07:30am 14.3 12.7 13.8 97 0.3 N 15 22 8 12 1016.6 1015.7 6.0
23/07:00am 14.0 12.3 13.7 98 0.2 NNE 15 19 8 10 1016.1 1015.2 6.0
23/06:30am 13.8 12.8 13.5 98 0.2 N 11 17 6 9 1016.2 1015.3 6.0
23/06:00am 13.8 12.9 13.6 99 0.1 N 11 15 6 8 1016.2 1015.3 6.0
23/05:37am 13.5 12.8 13.3 99 0.1 N 9 15 5 8 1016.2 1015.3 6.0
23/05:30am 13.4 12.3 13.2 99 0.1 N 11 15 6 8 1016.1 1015.2 6.0
23/05:29am 13.4 12.3 13.2 99 0.1 N 11 15 6 8 1016.1 1015.2 6.0
23/05:00am 13.4 12.7 13.2 99 0.1 NNW 9 13 5 7 1016.3 1015.4 5.8
23/04:30am 13.5 12.5 13.3 99 0.1 NW 11 15 6 8 1016.4 1015.5 5.8
23/04:00am 13.5 12.1 13.3 99 0.1 NW 13 17 7 9 1016.4 1015.5 5.8
23/03:30am 13.5 12.5 13.3 99 0.1 NW 11 13 6 7 1016.3 1015.4 5.8
23/03:00am 13.4 11.9 13.2 99 0.1 NNW 13 15 7 8 1016.4 1015.5 5.6
23/02:30am 13.4 12.3 13.2 99 0.1 N 11 17 6 9 1016.7 1015.8 4.4
23/02:15am 13.4 12.3 13.2 99 0.1 N 11 17 6 9 1016.9 1015.9 4.4
23/02:14am 13.4 12.3 13.2 99 0.1 N 11 17 6 9 1016.9 1015.9 4.4
23/02:00am 13.5 12.5 13.3 99 0.1 N 11 15 6 8 1017.0 1016.1 4.2
23/01:30am 13.7 12.6 13.2 97 0.3 N 11 15 6 8 1016.9 1015.9 4.2
23/01:00am 13.5 13.2 13.3 99 0.1 N 7 9 4 5 1017.3 1016.4 4.2
23/12:30am 13.3 13.1 13.1 99 0.1 WSW 6 7 3 4 1017.6 1016.7 4.2
23/12:29am 13.3 13.1 13.1 99 0.1 WSW 6 7 3 4 1017.6 1016.7 4.2
23/12:17am 13.3 13.1 13.1 99 0.1 WSW 6 9 3 5 1017.6 1016.7 4.2
23/12:00am 13.3 11.8 13.1 99 0.1 SW 13 17 7 9 1017.6 1016.7 4.2
 
Date/Time
EST
Temp
°C
App
Temp
°C
Dew
Point
°C
Rel
Hum
%
Delta-T
°C
Wind Press
QNH
hPa
Press
MSL
hPa
Rain since
9am
mm
Dir  Spd
km/h
Gust
km/h
Spd
kts
Gust
kts
22/11:41pm 13.4 11.2 13.2 99 0.1 SW 17 20 9 11 1017.8 1016.9 2.6
22/11:30pm 13.4 11.2 13.2 99 0.1 SW 17 20 9 11 1017.7 1016.8 1.4
22/11:22pm 13.5 11.3 13.2 98 0.2 SW 17 22 9 12 1017.7 1016.8 1.0
22/11:00pm 14.7 11.8 12.9 89 1.0 NNW 20 35 11 19 1017.6 1016.7 0.4
22/10:30pm 15.3 12.6 12.8 85 1.4 NNE 19 28 10 15 1017.0 1016.1 0.0
22/10:00pm 15.1 12.7 12.8 86 1.3 NE 17 26 9 14 1017.1 1016.2 0.0
22/09:30pm 15.0 12.2 12.5 85 1.4 NE 19 24 10 13 1017.1 1016.2 0.0
22/09:00pm 15.0 12.4 12.1 83 1.6 NE 17 24 9 13 1016.9 1015.9 0.0
22/08:30pm 15.2 12.5 11.6 79 2.0 NE 17 22 9 12 1016.5 1015.6 0.0
22/08:00pm 15.3 12.5 11.3 77 2.2 ENE 17 20 9 11 1016.4 1015.5 0.0
22/07:30pm 15.4 12.8 10.6 73 2.6 ENE 15 19 8 10 1016.2 1015.3 0.0
22/07:00pm 15.9 12.8 10.4 70 3.0 ENE 17 19 9 10 1015.8 1014.9 0.0
22/06:30pm 16.4 13.4 10.5 68 3.2 ENE 17 22 9 12 1015.7 1014.8 0.0
22/06:00pm 16.7 13.9 10.1 65 3.6 ENE 15 20 8 11 1015.7 1014.8 0.0
22/05:30pm 17.5 14.2 9.7 60 4.2 ENE 17 24 9 13 1015.5 1014.5 0.0
22/05:00pm 18.4 14.8 10.0 58 4.6 ENE 19 26 10 14 1015.5 1014.5 0.0
22/04:30pm 18.7 15.1 10.0 57 4.8 ENE 19 26 10 14 1015.5 1014.5 0.0
22/04:00pm 19.1 15.6 10.1 56 5.0 NE 19 26 10 14 1015.4 1014.4 0.0
22/03:30pm 19.8 16.1 10.0 53 5.4 NE 20 28 11 15 1015.6 1014.7 0.0
22/03:00pm 19.6 16.0 9.8 53 5.4 NNE 19 24 10 13 1015.6 1014.7 0.0
22/02:30pm 19.8 16.1 10.2 54 5.3 NE 20 28 11 15 1015.8 1014.9 0.0
22/02:00pm 19.6 15.8 9.8 53 5.4 ENE 20 28 11 15 1016.1 1015.2 0.0
22/01:30pm 19.0 15.3 10.0 56 5.0 ENE 20 28 11 15 1016.7 1015.8 0.0
22/01:00pm 19.0 15.0 10.6 58 4.7 ENE 22 32 12 17 1017.1 1016.2 0.0
22/12:30pm 18.1 15.2 11.0 63 4.0 ENE 17 26 9 14 1017.7 1016.8 0.0
22/12:00pm 17.1 13.6 10.9 67 3.4 ENE 20 33 11 18 1018.3 1017.5 0.0
22/11:30am 17.8 13.7 11.6 67 3.5 ENE 24 33 13 18 1018.6 1017.7 0.0
22/11:00am 17.5 13.3 11.1 66 3.6 ENE 24 32 13 17 1018.9 1018.0 0.0
22/10:30am 16.6 12.5 11.3 71 3.0 E 24 32 13 17 1019.3 1018.4 0.0
22/10:00am 15.4 10.8 11.0 75 2.4 E 26 35 14 19 1019.5 1018.6 0.0
22/09:30am 14.5 10.4 11.3 81 1.8 ENE 24 33 13 18 1019.7 1018.9 0.0

Latest Capital City Observations: Canberra | Sydney | Melbourne | Brisbane | Adelaide | Perth | Hobart | Darwin

Other Formats:

Comma delimited format used in spreadsheet applications
http://www.bom.gov.au/fwo/IDQ60901/IDQ60901.95551.axf

JavaScript Object Notation format (JSON) in row-major order
http://www.bom.gov.au/fwo/IDQ60901/IDQ60901.95551.json